createdAt,value
2019-01-15T00:02:27.887Z,4.77
2019-01-15T00:04:56.655Z,4.64
2019-01-15T00:07:25.013Z,4.69
2019-01-15T00:09:53.014Z,4.74
2019-01-15T00:12:21.436Z,4.70
2019-01-15T00:14:50.039Z,4.74
2019-01-15T00:17:18.621Z,4.71
2019-01-15T00:19:47.078Z,4.91
2019-01-15T00:22:15.686Z,4.79
2019-01-15T00:24:43.816Z,4.89
2019-01-15T00:27:11.821Z,4.73
2019-01-15T00:29:40.332Z,4.80
2019-01-15T00:32:08.378Z,4.89
2019-01-15T00:34:36.387Z,4.78
2019-01-15T00:37:04.739Z,4.85
2019-01-15T00:39:33.211Z,4.85
2019-01-15T00:42:01.790Z,4.81
2019-01-15T00:44:29.860Z,4.86
2019-01-15T00:46:57.940Z,4.84
2019-01-15T00:49:26.220Z,4.92
2019-01-15T00:51:54.308Z,4.92
2019-01-15T00:54:22.788Z,4.82
2019-01-15T00:56:51.467Z,4.66
2019-01-15T00:59:19.622Z,4.77
2019-01-15T01:01:47.778Z,4.91
2019-01-15T01:04:16.059Z,4.82
2019-01-15T01:06:44.470Z,4.86
2019-01-15T01:09:13.064Z,4.89
2019-01-15T01:11:41.206Z,4.81
2019-01-15T01:14:09.726Z,4.85
2019-01-15T01:16:38.058Z,4.74
2019-01-15T01:19:06.202Z,4.94
2019-01-15T01:21:34.781Z,4.79
2019-01-15T01:24:02.871Z,4.93
2019-01-15T01:26:31.298Z,4.88
2019-01-15T01:28:59.488Z,4.92
2019-01-15T01:31:27.571Z,4.94
2019-01-15T01:33:55.743Z,4.86
2019-01-15T01:36:23.991Z,4.77
2019-01-15T01:38:52.426Z,4.91
2019-01-15T01:41:20.691Z,4.72
2019-01-15T01:43:49.009Z,4.81
2019-01-15T01:46:17.490Z,4.82
2019-01-15T01:48:45.691Z,4.96
2019-01-15T01:51:14.450Z,4.77
2019-01-15T01:53:43.412Z,4.78
2019-01-15T01:56:12.278Z,4.64
2019-01-15T01:58:40.568Z,4.89
2019-01-15T02:01:09.463Z,4.77
2019-01-15T02:03:37.675Z,4.70
2019-01-15T02:06:06.206Z,4.99
2019-01-15T02:08:34.390Z,4.67
2019-01-15T02:11:02.469Z,4.84
2019-01-15T02:13:31.192Z,4.80
2019-01-15T02:15:59.466Z,4.65
2019-01-15T02:18:27.831Z,4.88
2019-01-15T02:20:56.028Z,4.80
2019-01-15T02:23:24.882Z,4.79
2019-01-15T02:25:53.367Z,4.66
2019-01-15T02:28:21.800Z,4.97
2019-01-15T02:30:50.015Z,4.83
2019-01-15T02:33:18.500Z,4.85
2019-01-15T02:35:46.782Z,4.59
2019-01-15T02:39:23.259Z,4.72
2019-01-15T02:41:51.925Z,4.59
2019-01-15T02:44:20.566Z,4.53
2019-01-15T02:46:48.781Z,4.68
2019-01-15T02:49:17.117Z,4.68
2019-01-15T02:51:45.312Z,4.62
2019-01-15T02:54:13.551Z,4.65
2019-01-15T02:56:41.832Z,4.74
2019-01-15T02:59:10.030Z,4.54
2019-01-15T03:01:38.287Z,4.69
2019-01-15T03:04:06.820Z,4.61
2019-01-15T03:06:35.391Z,4.67
2019-01-15T03:09:05.128Z,4.67
2019-01-15T03:11:33.583Z,4.70
2019-01-15T03:14:02.086Z,4.68
2019-01-15T03:16:31.273Z,4.58
2019-01-15T03:19:00.198Z,4.84
2019-01-15T03:21:28.732Z,4.72
2019-01-15T03:23:57.528Z,4.70
2019-01-15T03:26:26.831Z,4.70
2019-01-15T03:28:55.032Z,4.68
2019-01-15T03:31:23.891Z,4.69
2019-01-15T03:33:52.584Z,4.66
2019-01-15T03:36:20.781Z,4.70
2019-01-15T03:38:49.012Z,4.77
2019-01-15T03:41:17.214Z,4.64
2019-01-15T03:43:45.670Z,4.70
2019-01-15T03:46:13.825Z,4.69
2019-01-15T03:50:22.524Z,4.87
2019-01-15T03:52:51.094Z,4.88
2019-01-15T03:55:19.764Z,4.81
2019-01-15T03:57:48.173Z,4.70
2019-01-15T04:00:17.952Z,4.74
2019-01-15T04:02:46.448Z,4.90
2019-01-15T04:05:16.362Z,4.91
2019-01-15T04:07:45.308Z,4.89
2019-01-15T04:11:06.053Z,5.04
2019-01-15T04:13:34.655Z,4.96
2019-01-15T04:16:02.974Z,5.10
2019-01-15T04:18:31.300Z,5.10
2019-01-15T04:20:59.977Z,5.01
2019-01-15T04:23:28.222Z,5.06
2019-01-15T04:25:56.378Z,4.98
2019-01-15T04:28:24.677Z,5.01
2019-01-15T04:30:52.919Z,4.90
2019-01-15T04:33:21.596Z,4.94
2019-01-15T04:35:50.133Z,4.98
2019-01-15T04:38:19.033Z,4.92
2019-01-15T04:40:47.936Z,4.97
2019-01-15T04:43:19.796Z,5.00
2019-01-15T04:45:46.461Z,4.92
2019-01-15T04:48:14.671Z,4.90
2019-01-15T04:50:42.897Z,4.91
2019-01-15T04:53:11.131Z,4.81
2019-01-15T04:55:40.130Z,4.88
2019-01-15T04:58:08.659Z,4.89
2019-01-15T05:02:44.450Z,4.88
2019-01-15T05:05:13.834Z,4.66
2019-01-15T05:07:42.313Z,4.66
2019-01-15T05:10:11.561Z,4.68
2019-01-15T05:12:39.831Z,4.68
2019-01-15T05:15:09.367Z,4.78
2019-01-15T05:17:38.490Z,4.76
2019-01-15T05:20:07.560Z,4.71
2019-01-15T05:22:36.556Z,4.66
2019-01-15T05:25:06.168Z,4.84
2019-01-15T05:27:34.494Z,4.75
2019-01-15T05:30:02.839Z,4.75
2019-01-15T05:32:31.049Z,4.83
2019-01-15T05:34:59.561Z,4.81
2019-01-15T05:37:27.854Z,4.84
2019-01-15T05:39:56.098Z,4.84
2019-01-15T05:42:24.700Z,4.74
2019-01-15T05:44:54.920Z,4.83
2019-01-15T05:47:25.201Z,4.77
2019-01-15T05:49:53.564Z,4.88
2019-01-15T05:52:22.326Z,4.72
2019-01-15T05:54:50.700Z,4.78
2019-01-15T05:57:19.245Z,4.76
2019-01-15T05:59:47.838Z,4.75
2019-01-15T06:02:16.052Z,4.66
2019-01-15T06:04:44.233Z,4.80
2019-01-15T06:07:12.730Z,4.78
2019-01-15T06:09:40.914Z,4.84
2019-01-15T06:12:09.450Z,4.90
2019-01-15T06:14:37.666Z,4.99
2019-01-15T06:17:06.303Z,5.02
2019-01-15T06:19:34.780Z,5.19
2019-01-15T06:22:03.115Z,5.04
2019-01-15T06:24:31.297Z,5.23
2019-01-15T06:26:59.637Z,5.20
2019-01-15T06:29:28.944Z,5.05
2019-01-15T06:31:57.363Z,5.06
2019-01-15T06:34:25.536Z,4.99
2019-01-15T06:36:53.787Z,5.08
2019-01-15T06:40:37.507Z,5.15
2019-01-15T06:43:05.761Z,5.06
2019-01-15T06:45:34.355Z,5.11
2019-01-15T06:48:02.788Z,5.05
2019-01-15T06:50:31.140Z,5.10
2019-01-15T06:52:59.459Z,5.11
2019-01-15T06:55:27.968Z,5.14
2019-01-15T06:57:56.661Z,5.18
2019-01-15T07:00:26.799Z,5.08
2019-01-15T07:02:55.476Z,5.15
2019-01-15T07:05:23.792Z,5.13
2019-01-15T07:07:52.498Z,4.90
2019-01-15T07:10:31.562Z,4.90
2019-01-15T07:13:00.026Z,4.94
2019-01-15T07:15:28.235Z,4.91
2019-01-15T07:17:56.765Z,4.98
2019-01-15T07:20:25.128Z,4.80
2019-01-15T07:22:53.540Z,5.02
2019-01-15T07:25:21.889Z,5.00
2019-01-15T07:27:50.116Z,5.16
2019-01-15T07:30:23.184Z,4.98
2019-01-15T07:32:51.766Z,4.98
2019-01-15T07:35:20.360Z,4.93
2019-01-15T07:37:48.581Z,5.02
2019-01-15T07:40:17.985Z,5.07
2019-01-15T07:42:46.622Z,5.19
2019-01-15T07:47:57.718Z,5.21
2019-01-15T07:50:26.258Z,5.13
2019-01-15T07:52:54.477Z,5.19
2019-01-15T07:58:01.062Z,5.09
2019-01-15T08:00:29.264Z,5.15
2019-01-15T08:02:57.557Z,5.20
2019-01-15T08:05:27.868Z,5.17
2019-01-15T08:07:56.304Z,4.97
2019-01-15T08:10:24.849Z,5.23
2019-01-15T08:12:53.022Z,5.04
2019-01-15T08:15:21.935Z,5.24
2019-01-15T08:17:50.536Z,5.29
2019-01-15T08:20:19.152Z,5.28
2019-01-15T08:22:47.434Z,5.24
2019-01-15T08:25:16.462Z,5.33
2019-01-15T08:27:44.793Z,5.49
2019-01-15T08:30:14.649Z,5.34
2019-01-15T08:32:43.226Z,5.56
2019-01-15T08:35:11.604Z,5.30
2019-01-15T08:37:39.888Z,5.44
2019-01-15T08:40:08.858Z,5.47
2019-01-15T08:42:37.015Z,5.43
2019-01-15T08:45:06.023Z,5.31
2019-01-15T08:47:36.105Z,5.46
2019-01-15T08:50:05.864Z,5.56
2019-01-15T08:52:34.202Z,5.77
2019-01-15T08:55:02.798Z,5.67
2019-01-15T08:57:31.018Z,5.55
2019-01-15T08:59:59.703Z,5.69
2019-01-15T09:02:28.231Z,5.70
2019-01-15T09:04:56.779Z,5.69
2019-01-15T09:07:25.702Z,5.70
2019-01-15T09:09:53.901Z,5.83
2019-01-15T09:12:22.360Z,5.93
2019-01-15T09:14:50.755Z,5.95
2019-01-15T09:17:19.132Z,5.95
2019-01-15T09:19:47.530Z,6.19
2019-01-15T09:22:15.881Z,6.37
2019-01-15T09:26:11.636Z,6.49
2019-01-15T09:28:40.258Z,6.31
2019-01-15T09:31:08.627Z,6.47
2019-01-15T09:33:36.866Z,6.42
2019-01-15T09:36:05.061Z,6.56
2019-01-15T09:38:33.420Z,6.60
2019-01-15T09:41:01.442Z,6.62
2019-01-15T09:43:29.802Z,6.73
2019-01-15T09:45:58.293Z,6.61
2019-01-15T09:48:29.722Z,7.08
2019-01-15T09:50:57.792Z,7.18
2019-01-15T09:53:25.944Z,7.18
2019-01-15T09:55:54.667Z,7.16
2019-01-15T09:58:25.549Z,7.37
2019-01-15T10:00:53.736Z,7.57
2019-01-15T10:03:22.022Z,7.71
2019-01-15T10:05:50.097Z,7.42
2019-01-15T10:08:18.339Z,7.53
2019-01-15T10:10:46.657Z,7.72
2019-01-15T10:13:14.865Z,7.90
2019-01-15T10:15:43.346Z,7.87
2019-01-15T10:18:11.450Z,7.79
2019-01-15T10:20:39.656Z,7.81
2019-01-15T10:23:07.985Z,8.07
2019-01-15T10:25:36.452Z,7.98
2019-01-15T10:28:04.655Z,8.02
2019-01-15T10:30:42.132Z,8.02
2019-01-15T10:33:22.517Z,8.21
2019-01-15T10:35:55.119Z,7.82
2019-01-15T10:38:24.403Z,8.05
2019-01-15T10:40:53.398Z,8.05
2019-01-15T10:43:21.536Z,8.27
2019-01-15T10:45:50.479Z,8.48
2019-01-15T10:48:19.004Z,8.61
2019-01-15T10:50:47.747Z,8.79
2019-01-15T10:53:16.105Z,8.95
2019-01-15T10:55:44.180Z,9.12
2019-01-15T10:58:17.490Z,9.23
2019-01-15T11:00:42.670Z,9.07
2019-01-15T11:03:11.103Z,9.15
2019-01-15T11:05:39.584Z,9.09
2019-01-15T11:08:08.055Z,8.83
2019-01-15T11:10:36.157Z,8.67
2019-01-15T11:13:04.259Z,8.97
2019-01-15T11:15:32.682Z,9.09
2019-01-15T11:18:00.926Z,9.52
2019-01-15T11:20:28.954Z,9.12
2019-01-15T11:22:57.308Z,8.98
2019-01-15T11:25:25.342Z,8.74
2019-01-15T11:27:53.850Z,8.88
2019-01-15T11:30:22.250Z,8.92
2019-01-15T11:32:50.730Z,9.13
2019-01-15T11:35:19.212Z,9.44
2019-01-15T11:37:47.684Z,9.39
2019-01-15T11:40:16.495Z,9.55
2019-01-15T11:42:45.263Z,9.52
2019-01-15T11:45:13.654Z,9.34
2019-01-15T11:47:42.091Z,9.25
2019-01-15T11:50:12.105Z,9.04
2019-01-15T11:52:40.550Z,9.00
2019-01-15T11:55:08.960Z,9.12
2019-01-15T11:57:37.209Z,9.00
2019-01-15T12:00:08.490Z,8.75
2019-01-15T12:02:43.372Z,9.08
2019-01-15T12:05:37.033Z,8.86
2019-01-15T12:08:24.411Z,8.71
2019-01-15T12:11:10.702Z,8.65
2019-01-15T12:13:53.508Z,8.96
2019-01-15T12:16:49.868Z,8.73
2019-01-15T12:19:31.479Z,8.66
2019-01-15T12:22:27.595Z,8.62
2019-01-15T12:25:11.495Z,8.63
2019-01-15T12:28:06.546Z,8.63
2019-01-15T12:30:56.798Z,8.67
2019-01-15T12:33:42.723Z,8.84
2019-01-15T12:36:36.857Z,8.86
2019-01-15T12:39:29.514Z,8.66
2019-01-15T12:42:32.563Z,8.45
2019-01-15T12:45:23.603Z,8.46
2019-01-15T12:48:12.643Z,8.40
2019-01-15T12:51:16.297Z,8.10
2019-01-15T12:54:19.642Z,7.92
2019-01-15T12:57:05.526Z,7.99
2019-01-15T12:59:51.317Z,8.07
2019-01-15T13:02:37.869Z,8.14
2019-01-15T13:05:43.799Z,8.11
2019-01-15T13:08:29.815Z,8.01
2019-01-15T13:11:16.966Z,8.09
2019-01-15T13:14:16.319Z,8.38
2019-01-15T13:17:02.315Z,8.23
2019-01-15T13:19:48.031Z,8.22
2019-01-15T13:22:34.071Z,8.01
2019-01-15T13:25:20.480Z,8.04
2019-01-15T13:28:13.703Z,8.12
2019-01-15T13:30:59.511Z,8.32
2019-01-15T13:33:56.238Z,8.14
2019-01-15T13:36:49.626Z,8.29
2019-01-15T13:39:37.273Z,8.38
2019-01-15T13:42:23.574Z,8.37
2019-01-15T13:45:09.500Z,8.28
2019-01-15T13:47:56.372Z,8.17
2019-01-15T13:50:42.708Z,8.07
2019-01-15T13:53:32.927Z,8.02
2019-01-15T13:56:20.388Z,7.89
2019-01-15T13:59:06.240Z,7.88
2019-01-15T14:02:05.990Z,7.93
2019-01-15T14:04:42.440Z,8.01
2019-01-15T14:07:28.585Z,8.05
2019-01-15T14:10:16.188Z,7.94
2019-01-15T14:13:15.884Z,8.05
2019-01-15T14:16:00.644Z,8.11
2019-01-15T14:18:54.934Z,7.75
2019-01-15T14:21:45.543Z,7.75
2019-01-15T14:24:24.132Z,7.80
2019-01-15T14:27:17.428Z,8.04
2019-01-15T14:30:10.441Z,7.88
2019-01-15T14:32:58.076Z,7.90
2019-01-15T14:35:46.220Z,7.95
2019-01-15T14:38:32.651Z,8.04
2019-01-15T14:41:18.657Z,7.92
2019-01-15T14:44:24.103Z,8.04
2019-01-15T14:47:23.360Z,7.80
2019-01-15T14:50:07.747Z,7.66
2019-01-15T14:53:05.000Z,7.69
2019-01-15T14:55:55.609Z,7.83
2019-01-15T14:58:43.272Z,7.61
2019-01-15T15:01:33.874Z,7.63
2019-01-15T15:04:20.978Z,7.77
2019-01-15T15:07:06.028Z,7.73
2019-01-15T15:10:09.120Z,7.76
2019-01-15T15:12:59.419Z,7.88
2019-01-15T15:15:52.162Z,7.74
2019-01-15T15:18:38.433Z,7.65
2019-01-15T15:21:28.710Z,7.54
2019-01-15T15:24:21.968Z,7.69
2019-01-15T15:26:59.814Z,7.68
2019-01-15T15:29:45.642Z,7.72
2019-01-15T15:32:36.615Z,7.79
2019-01-15T15:35:33.823Z,7.76
2019-01-15T15:38:24.066Z,7.70
2019-01-15T15:41:17.317Z,7.77
2019-01-15T15:44:04.852Z,7.75
2019-01-15T15:46:50.795Z,7.66
2019-01-15T15:50:17.530Z,7.70
2019-01-15T15:53:17.413Z,7.54
2019-01-15T15:56:14.149Z,7.55
2019-01-15T15:59:01.875Z,7.56
2019-01-15T16:01:48.118Z,7.62
2019-01-15T16:04:26.712Z,7.57
2019-01-15T16:07:12.714Z,7.52
2019-01-15T16:09:59.030Z,7.63
2019-01-15T16:12:54.737Z,7.58
2019-01-15T16:15:51.442Z,7.56
2019-01-15T16:18:38.875Z,7.58
2019-01-15T16:21:25.367Z,7.67
2019-01-15T16:24:13.247Z,7.64
2019-01-15T16:26:53.962Z,7.66
2019-01-15T16:29:56.506Z,7.72
2019-01-15T16:33:02.030Z,7.59
2019-01-15T16:35:55.126Z,7.74
2019-01-15T16:38:46.289Z,7.78
2019-01-15T16:41:34.093Z,7.62
2019-01-15T16:44:20.611Z,7.75
2019-01-15T16:46:59.849Z,7.73
2019-01-15T16:49:50.751Z,7.64
2019-01-15T16:52:37.582Z,7.54
2019-01-15T16:55:23.971Z,7.80
2019-01-15T16:58:10.595Z,7.67
2019-01-15T17:00:51.350Z,7.61
2019-01-15T17:03:51.173Z,7.89
2019-01-15T17:06:47.465Z,7.94
2019-01-15T17:09:32.897Z,7.82
2019-01-15T17:12:28.691Z,7.79
2019-01-15T17:15:15.847Z,7.78
2019-01-15T17:18:02.830Z,7.60
2019-01-15T17:20:37.949Z,7.68
2019-01-15T17:23:20.386Z,7.73
2019-01-15T17:26:09.014Z,7.64
2019-01-15T17:29:05.058Z,7.60
2019-01-15T17:31:59.621Z,7.69
2019-01-15T17:34:40.381Z,7.57
2019-01-15T17:37:27.402Z,7.81
2019-01-15T17:40:20.435Z,7.51
2019-01-15T17:43:06.696Z,7.61
2019-01-15T17:46:05.723Z,7.71
2019-01-15T17:48:55.980Z,7.82
2019-01-15T17:51:46.193Z,7.77
2019-01-15T17:54:45.908Z,7.62
2019-01-15T17:57:33.307Z,7.59
2019-01-15T18:00:27.095Z,7.59
2019-01-15T18:03:23.334Z,7.57
2019-01-15T18:06:23.062Z,7.56
2019-01-15T18:09:25.432Z,7.50
2019-01-15T18:12:15.314Z,7.33
2019-01-15T18:15:15.199Z,7.24
2019-01-15T18:18:08.680Z,7.14
2019-01-15T18:20:54.801Z,7.23
2019-01-15T18:23:45.034Z,7.39
2019-01-15T18:26:31.082Z,7.30
2019-01-15T18:29:27.332Z,7.37
2019-01-15T18:32:14.811Z,7.27
2019-01-15T18:35:01.322Z,7.25
2019-01-15T18:37:43.414Z,7.17
2019-01-15T18:40:42.959Z,7.41
2019-01-15T18:46:40.420Z,7.38
2019-01-15T18:49:26.739Z,7.45
2019-01-15T18:52:14.097Z,7.45
2019-01-15T18:55:16.686Z,7.37
2019-01-15T18:58:03.929Z,7.27
2019-01-15T19:00:54.024Z,7.25
